Time;durP1;ratioP1;P1;durP2;ratioP2;P2;SDS_P1;SDS_P2;PMS_P1;PMS_P2;Temp;Humidity;BMP_temperature;BMP_pressure;BME280_temperature;BME280_humidity;BME280_pressure;Samples;Min_cycle;Max_cycle;Signal;HPM_P1;HPM_P2
2021/06/27 00:02:00;;;;;;;12.57;11.47;;;;;;;;;;5013459;28;20806;-70
2021/06/27 00:04:26;;;;;;;12.30;11.07;;;;;;;;;;5013247;28;20413;-70
2021/06/27 00:09:56;;;;;;;13.53;11.03;;;;;;;;;;5013282;28;20419;-70
2021/06/27 00:12:22;;;;;;;13.07;11.67;;;;;;;;;;5013224;28;20413;-72
2021/06/27 00:14:48;;;;;;;11.70;10.60;;;;;;;;;;5012965;28;20455;-70
2021/06/27 00:17:14;;;;;;;12.40;11.20;;;;;;;;;;5013127;28;20475;-70
2021/06/27 00:19:40;;;;;;;12.67;11.37;;;;;;;;;;5011789;28;20421;-70
2021/06/27 00:22:06;;;;;;;13.63;12.20;;;;;;;;;;5011611;28;20528;-70
2021/06/27 00:24:32;;;;;;;13.27;11.83;;;;;;;;;;5012229;28;20413;-71
2021/06/27 00:26:58;;;;;;;12.50;11.30;;;;;;;;;;5012305;28;20416;-70
2021/06/27 00:29:24;;;;;;;15.40;11.17;;;;;;;;;;5012566;28;20480;-70
2021/06/27 00:31:50;;;;;;;12.60;10.00;;;;;;;;;;5013006;28;20433;-72
2021/06/27 00:34:16;;;;;;;12.30;11.20;;;;;;;;;;5012673;28;20582;-71
2021/06/27 00:39:45;;;;;;;11.20;10.10;;;;;;;;;;5012844;28;20419;-69
2021/06/27 00:42:11;;;;;;;10.03;9.07;;;;;;;;;;5011345;28;20444;-71
2021/06/27 00:44:37;;;;;;;11.40;10.37;;;;;;;;;;5012481;28;20495;-70
2021/06/27 00:47:04;;;;;;;10.93;9.63;;;;;;;;;;5012213;28;20457;-71
2021/06/27 00:49:29;;;;;;;10.90;9.90;;;;;;;;;;5012739;28;20769;-70
2021/06/27 00:54:59;;;;;;;9.77;8.77;;;;;;;;;;5012537;28;20419;-70
2021/06/27 00:57:25;;;;;;;10.03;9.00;;;;;;;;;;5012377;28;20549;-69
2021/06/27 00:59:51;;;;;;;9.97;8.97;;;;;;;;;;5012417;28;20519;-71
2021/06/27 01:02:17;;;;;;;10.33;9.20;;;;;;;;;;5012528;28;20463;-70
2021/06/27 01:04:43;;;;;;;10.13;9.23;;;;;;;;;;5012395;28;20409;-71
2021/06/27 01:10:13;;;;;;;10.07;9.10;;;;;;;;;;5012475;28;20511;-71
2021/06/27 01:12:39;;;;;;;11.53;10.33;;;;;;;;;;5005832;28;20420;-70
2021/06/27 01:15:06;;;;;;;11.03;10.00;;;;;;;;;;5012104;28;20423;-72
2021/06/27 01:17:33;;;;;;;11.20;9.80;;;;;;;;;;5012276;28;20471;-70
2021/06/27 01:19:58;;;;;;;11.03;9.93;;;;;;;;;;5012003;28;20548;-69
2021/06/27 01:25:30;;;;;;;11.63;10.43;;;;;;;;;;5012346;28;20490;-70
2021/06/27 01:27:57;;;;;;;10.40;9.40;;;;;;;;;;5010972;28;20476;-70
2021/06/27 01:30:23;;;;;;;10.27;9.20;;;;;;;;;;5011218;28;20511;-71
2021/06/27 01:32:51;;;;;;;12.27;11.07;;;;;;;;;;5012295;28;20452;-70
2021/06/27 01:35:18;;;;;;;11.53;10.17;;;;;;;;;;5014570;28;20789;-71
2021/06/27 01:37:45;;;;;;;10.50;9.40;;;;;;;;;;5015969;28;20483;-71
2021/06/27 01:40:12;;;;;;;12.43;9.87;;;;;;;;;;5015821;28;20409;-71
2021/06/27 01:42:38;;;;;;;11.63;10.10;;;;;;;;;;5016162;28;20494;-70
2021/06/27 01:45:09;;;;;;;11.03;10.00;;;;;;;;;;5015470;28;20417;-69
2021/06/27 01:47:35;;;;;;;12.50;10.00;;;;;;;;;;5015729;28;20420;-70
2021/06/27 01:50:01;;;;;;;11.60;10.20;;;;;;;;;;5015239;28;20991;-69
2021/06/27 01:55:30;;;;;;;10.83;9.77;;;;;;;;;;5016433;28;20403;-70
2021/06/27 01:57:56;;;;;;;11.80;10.60;;;;;;;;;;5016443;28;20818;-69
2021/06/27 02:00:24;;;;;;;11.83;10.70;;;;;;;;;;5016069;28;20639;-70
2021/06/27 02:02:50;;;;;;;9.83;8.97;;;;;;;;;;5016024;28;20420;-70
2021/06/27 02:05:16;;;;;;;11.63;10.50;;;;;;;;;;5016132;28;20420;-69
2021/06/27 02:10:46;;;;;;;10.40;8.63;;;;;;;;;;5015046;28;20503;-72
2021/06/27 02:13:12;;;;;;;11.07;10.00;;;;;;;;;;5015744;28;20470;-69
2021/06/27 02:15:38;;;;;;;10.03;9.13;;;;;;;;;;5015507;28;20413;-71
2021/06/27 02:18:10;;;;;;;12.57;9.77;;;;;;;;;;5015562;28;20427;-70
2021/06/27 02:20:36;;;;;;;9.07;8.20;;;;;;;;;;5015466;28;20439;-70
2021/06/27 02:23:02;;;;;;;10.10;8.70;;;;;;;;;;5015639;28;20425;-70
2021/06/27 02:25:28;;;;;;;11.20;10.23;;;;;;;;;;5014259;28;20926;-70
2021/06/27 02:27:54;;;;;;;10.00;9.00;;;;;;;;;;5015612;28;20919;-70
2021/06/27 02:30:21;;;;;;;13.00;10.53;;;;;;;;;;5007055;28;20464;-70
2021/06/27 02:32:47;;;;;;;10.17;8.90;;;;;;;;;;5014874;28;20421;-73
2021/06/27 02:35:14;;;;;;;10.50;9.33;;;;;;;;;;5015167;28;20409;-70
2021/06/27 02:40:43;;;;;;;15.93;10.43;;;;;;;;;;5014930;28;20439;-70
2021/06/27 02:43:10;;;;;;;10.93;9.93;;;;;;;;;;5014566;28;20508;-70
2021/06/27 02:45:36;;;;;;;10.67;9.50;;;;;;;;;;5014542;28;20420;-71
2021/06/27 02:48:02;;;;;;;12.57;10.60;;;;;;;;;;5014071;28;20750;-70
2021/06/27 02:50:28;;;;;;;10.87;9.90;;;;;;;;;;5013177;28;20425;-70
2021/06/27 02:56:08;;;;;;;9.77;8.87;;;;;;;;;;5014504;28;20550;-70
2021/06/27 02:58:38;;;;;;;10.03;9.00;;;;;;;;;;5012952;28;20424;-71
2021/06/27 03:01:05;;;;;;;11.57;10.47;;;;;;;;;;5014373;28;20429;-70
2021/06/27 03:03:31;;;;;;;11.77;10.67;;;;;;;;;;5014762;28;20423;-72
2021/06/27 03:05:57;;;;;;;10.93;9.93;;;;;;;;;;5014580;28;20507;-72
2021/06/27 03:08:23;;;;;;;9.77;8.90;;;;;;;;;;5012521;28;20833;-69
2021/06/27 03:10:49;;;;;;;10.20;9.20;;;;;;;;;;5014222;28;20761;-70
2021/06/27 03:13:15;;;;;;;9.70;8.80;;;;;;;;;;5012617;28;20417;-70
2021/06/27 03:15:41;;;;;;;10.23;9.23;;;;;;;;;;5014176;28;20429;-72
2021/06/27 03:18:07;;;;;;;10.73;9.67;;;;;;;;;;5014222;28;20527;-71
2021/06/27 03:20:33;;;;;;;9.60;8.60;;;;;;;;;;5015982;28;20417;-70
2021/06/27 03:26:03;;;;;;;9.63;8.77;;;;;;;;;;5014052;28;20412;-73
2021/06/27 03:28:33;;;;;;;12.30;8.73;;;;;;;;;;5013622;28;20424;-70
2021/06/27 03:30:59;;;;;;;10.70;9.60;;;;;;;;;;5013960;28;20413;-70
2021/06/27 03:33:25;;;;;;;9.27;8.47;;;;;;;;;;5013854;28;20425;-70
2021/06/27 03:35:51;;;;;;;8.90;8.10;;;;;;;;;;5013790;28;20413;-71
2021/06/27 03:41:23;;;;;;;9.40;8.50;;;;;;;;;;5013529;28;20435;-70
2021/06/27 03:43:49;;;;;;;9.80;8.90;;;;;;;;;;5013359;28;20455;-71
2021/06/27 03:46:15;;;;;;;10.60;9.60;;;;;;;;;;5013507;28;20479;-71
2021/06/27 03:48:41;;;;;;;13.27;10.20;;;;;;;;;;5013611;28;20423;-71
2021/06/27 03:51:08;;;;;;;9.80;8.80;;;;;;;;;;5013482;28;20429;-71
2021/06/27 03:53:34;;;;;;;9.40;8.50;;;;;;;;;;5013706;28;20428;-69
2021/06/27 03:56:00;;;;;;;10.03;9.00;;;;;;;;;;5011386;28;20468;-70
2021/06/27 03:58:27;;;;;;;9.27;8.03;;;;;;;;;;5013248;28;20827;-68
2021/06/27 04:00:53;;;;;;;8.10;7.33;;;;;;;;;;5012027;28;20483;-71
2021/06/27 04:03:19;;;;;;;7.83;7.13;;;;;;;;;;5013125;28;20439;-70
2021/06/27 04:05:45;;;;;;;8.90;8.10;;;;;;;;;;5013099;28;20433;-70
2021/06/27 04:11:14;;;;;;;8.83;7.40;;;;;;;;;;5012533;28;20475;-71
2021/06/27 04:13:40;;;;;;;8.33;7.40;;;;;;;;;;5013214;28;20429;-71
2021/06/27 04:16:07;;;;;;;8.30;7.33;;;;;;;;;;5010122;28;20467;-72
2021/06/27 04:18:33;;;;;;;11.53;8.07;;;;;;;;;;5011481;28;20500;-71
2021/06/27 04:20:59;;;;;;;7.10;6.50;;;;;;;;;;5011876;28;20420;-71
2021/06/27 04:26:29;;;;;;;8.10;7.30;;;;;;;;;;5012397;28;20464;-71
2021/06/27 04:28:55;;;;;;;8.47;7.77;;;;;;;;;;5012471;28;20834;-71
2021/06/27 04:31:21;;;;;;;8.27;7.47;;;;;;;;;;5012826;28;20494;-71
2021/06/27 04:33:47;;;;;;;8.07;7.27;;;;;;;;;;5012605;28;20425;-71
2021/06/27 04:36:13;;;;;;;8.27;7.57;;;;;;;;;;5012255;28;20501;-71
2021/06/27 04:41:44;;;;;;;9.07;8.20;;;;;;;;;;5012739;28;20823;-70
2021/06/27 04:44:10;;;;;;;11.47;7.93;;;;;;;;;;5010494;28;20425;-70
2021/06/27 04:46:37;;;;;;;8.20;7.40;;;;;;;;;;5012733;28;20515;-70
2021/06/27 04:49:03;;;;;;;9.57;8.53;;;;;;;;;;5012620;28;20409;-70
2021/06/27 04:51:29;;;;;;;8.17;7.37;;;;;;;;;;5012516;28;20932;-71
2021/06/27 04:56:58;;;;;;;9.67;8.13;;;;;;;;;;5012722;28;21044;-70
2021/06/27 04:59:24;;;;;;;10.20;7.10;;;;;;;;;;5011931;28;20424;-70
2021/06/27 05:01:50;;;;;;;8.17;6.37;;;;;;;;;;5012573;28;20424;-70
2021/06/27 05:04:16;;;;;;;7.87;7.07;;;;;;;;;;5012598;28;20424;-71
2021/06/27 05:06:42;;;;;;;8.80;8.00;;;;;;;;;;5012554;28;20428;-71
2021/06/27 05:12:12;;;;;;;9.30;8.20;;;;;;;;;;5016468;28;20463;-69
2021/06/27 05:14:38;;;;;;;8.97;8.13;;;;;;;;;;5016301;28;20526;-70
2021/06/27 05:17:04;;;;;;;10.53;8.80;;;;;;;;;;5016277;28;20577;-71
2021/06/27 05:19:30;;;;;;;9.60;8.63;;;;;;;;;;5015360;28;20456;-70
2021/06/27 05:21:56;;;;;;;9.97;8.97;;;;;;;;;;5016162;28;20895;-72
2021/06/27 05:24:22;;;;;;;9.70;8.80;;;;;;;;;;5016280;28;20470;-69
2021/06/27 05:26:48;;;;;;;8.07;7.37;;;;;;;;;;5016278;28;20441;-73
2021/06/27 05:29:14;;;;;;;8.83;7.93;;;;;;;;;;5015841;28;20522;-71
2021/06/27 05:31:40;;;;;;;9.40;8.50;;;;;;;;;;5018093;28;20443;-71
2021/06/27 05:34:06;;;;;;;10.50;8.20;;;;;;;;;;5017210;28;20413;-71
2021/06/27 05:36:37;;;;;;;11.37;8.70;;;;;;;;;;5016048;28;20491;-72
2021/06/27 05:42:06;;;;;;;8.50;7.70;;;;;;;;;;5015838;28;20797;-70
2021/06/27 05:44:32;;;;;;;8.83;7.60;;;;;;;;;;5014150;28;20429;-72
2021/06/27 05:46:58;;;;;;;7.50;6.80;;;;;;;;;;5014195;28;20486;-71
2021/06/27 05:49:24;;;;;;;7.13;6.50;;;;;;;;;;5015776;28;20423;-70
2021/06/27 05:51:50;;;;;;;8.10;7.33;;;;;;;;;;5015626;28;20500;-69
2021/06/27 05:57:22;;;;;;;8.67;6.80;;;;;;;;;;5015668;28;20495;-70
2021/06/27 05:59:48;;;;;;;8.40;7.50;;;;;;;;;;5015345;28;20429;-71
2021/06/27 06:02:14;;;;;;;7.47;6.77;;;;;;;;;;5015120;28;20464;-71
2021/06/27 06:04:40;;;;;;;7.90;7.20;;;;;;;;;;5008781;28;20435;-71
2021/06/27 06:07:06;;;;;;;8.03;7.23;;;;;;;;;;5015383;28;20463;-71
2021/06/27 06:12:36;;;;;;;7.40;6.70;;;;;;;;;;5015405;28;20470;-70
2021/06/27 06:15:02;;;;;;;8.33;7.47;;;;;;;;;;5015067;28;20428;-72
2021/06/27 06:17:28;;;;;;;7.73;7.03;;;;;;;;;;5015264;28;21137;-70
2021/06/27 06:19:54;;;;;;;7.83;7.03;;;;;;;;;;5013950;28;20535;-71
2021/06/27 06:22:21;;;;;;;6.80;6.10;;;;;;;;;;5013501;28;20409;-71
2021/06/27 06:27:51;;;;;;;7.13;6.30;;;;;;;;;;5015108;28;20454;-72
2021/06/27 06:30:17;;;;;;;7.73;6.93;;;;;;;;;;5014596;28;20563;-72
2021/06/27 06:32:43;;;;;;;6.30;5.70;;;;;;;;;;5015219;28;20500;-71
2021/06/27 06:35:09;;;;;;;9.33;6.00;;;;;;;;;;5014971;28;20936;-70
2021/06/27 06:43:23;;;;;;;6.50;5.90;;;;;;;;;;5014019;28;20456;-70
2021/06/27 06:45:49;;;;;;;6.80;6.03;;;;;;;;;;5008879;28;20432;-71
2021/06/27 06:48:15;;;;;;;7.17;6.50;;;;;;;;;;5008314;28;20895;-70
2021/06/27 06:50:41;;;;;;;6.97;6.37;;;;;;;;;;5014168;28;20436;-71
2021/06/27 06:53:07;;;;;;;7.70;6.10;;;;;;;;;;5014020;28;20471;-72
2021/06/27 06:55:33;;;;;;;7.10;6.50;;;;;;;;;;5013986;28;20428;-71
2021/06/27 06:57:59;;;;;;;6.97;6.37;;;;;;;;;;5013334;28;20958;-70
2021/06/27 07:00:25;;;;;;;8.07;7.37;;;;;;;;;;5013746;28;20511;-69
2021/06/27 07:02:51;;;;;;;8.00;7.20;;;;;;;;;;5013759;28;20413;-73
2021/06/27 07:05:17;;;;;;;8.60;7.80;;;;;;;;;;5013874;28;20427;-70
2021/06/27 07:07:45;;;;;;;7.60;6.90;;;;;;;;;;5014246;28;20892;-70
2021/06/27 07:13:15;;;;;;;7.50;6.90;;;;;;;;;;5013090;28;20419;-71
2021/06/27 07:15:41;;;;;;;7.80;7.10;;;;;;;;;;5013803;28;20428;-70
2021/06/27 07:18:06;;;;;;;7.13;6.43;;;;;;;;;;5013696;28;20476;-69
2021/06/27 07:20:32;;;;;;;7.60;6.90;;;;;;;;;;5013203;28;20420;-70
2021/06/27 07:22:58;;;;;;;6.40;5.10;;;;;;;;;;5009299;28;20815;-70
2021/06/27 07:28:29;;;;;;;6.57;5.87;;;;;;;;;;5012669;28;20520;-72
2021/06/27 07:30:55;;;;;;;5.67;5.27;;;;;;;;;;5013719;28;20436;-72
2021/06/27 07:33:21;;;;;;;6.83;6.23;;;;;;;;;;5012713;28;20420;-71
2021/06/27 07:35:48;;;;;;;6.00;5.50;;;;;;;;;;5013223;28;20515;-69
2021/06/27 07:38:14;;;;;;;6.70;6.20;;;;;;;;;;5013360;28;20428;-71
2021/06/27 07:40:40;;;;;;;6.83;5.73;;;;;;;;;;5012325;28;20428;-70
2021/06/27 07:43:06;;;;;;;5.97;5.47;;;;;;;;;;5014270;28;20416;-70
2021/06/27 07:45:32;;;;;;;6.80;6.20;;;;;;;;;;5008235;28;20429;-71
2021/06/27 07:47:58;;;;;;;5.30;4.80;;;;;;;;;;5016008;28;20487;-72
2021/06/27 07:50:24;;;;;;;5.87;5.37;;;;;;;;;;5013332;28;20445;-70
2021/06/27 07:52:50;;;;;;;5.87;5.37;;;;;;;;;;5012873;28;20409;-71
2021/06/27 07:58:19;;;;;;;8.83;5.50;;;;;;;;;;5012578;28;20444;-70
2021/06/27 08:00:46;;;;;;;4.73;4.33;;;;;;;;;;5012873;28;20903;-69
2021/06/27 08:03:12;;;;;;;6.10;5.60;;;;;;;;;;5013119;28;20428;-70
2021/06/27 08:05:38;;;;;;;5.77;5.27;;;;;;;;;;5012825;28;20828;-70
2021/06/27 08:08:04;;;;;;;7.93;5.43;;;;;;;;;;5009155;28;20483;-70
2021/06/27 08:13:34;;;;;;;6.13;5.63;;;;;;;;;;5010899;28;20423;-70
2021/06/27 08:16:00;;;;;;;5.70;5.20;;;;;;;;;;5010780;28;20424;-70
2021/06/27 08:18:26;;;;;;;7.03;6.10;;;;;;;;;;4993260;28;20503;-69
2021/06/27 08:20:52;;;;;;;5.97;5.50;;;;;;;;;;5010460;28;20432;-70
2021/06/27 08:23:18;;;;;;;5.57;5.07;;;;;;;;;;5011507;28;20440;-72
2021/06/27 08:28:47;;;;;;;5.20;4.80;;;;;;;;;;5007131;28;20533;-69
2021/06/27 08:31:13;;;;;;;5.10;4.70;;;;;;;;;;5009746;28;20456;-69
2021/06/27 08:33:39;;;;;;;5.90;5.03;;;;;;;;;;5010603;28;20840;-72
2021/06/27 08:36:05;;;;;;;5.53;5.03;;;;;;;;;;5011427;28;20508;-70
2021/06/27 08:38:31;;;;;;;5.10;4.70;;;;;;;;;;5010070;28;20444;-71
2021/06/27 08:44:01;;;;;;;5.37;4.87;;;;;;;;;;5010708;28;20479;-70
2021/06/27 08:46:29;;;;;;;4.83;4.43;;;;;;;;;;5012558;28;20416;-69
2021/06/27 08:48:55;;;;;;;3.97;3.67;;;;;;;;;;5012412;28;20448;-71
2021/06/27 08:51:21;;;;;;;4.07;3.67;;;;;;;;;;5012215;28;20842;-71
2021/06/27 08:53:47;;;;;;;4.40;4.10;;;;;;;;;;5012533;28;20476;-70
2021/06/27 08:56:13;;;;;;;5.07;4.40;;;;;;;;;;5010828;28;20468;-72
2021/06/27 08:58:41;;;;;;;4.30;4.00;;;;;;;;;;5012164;28;20932;-71
2021/06/27 09:01:08;;;;;;;5.70;4.30;;;;;;;;;;5012067;28;20413;-71
2021/06/27 09:03:34;;;;;;;4.20;3.80;;;;;;;;;;5012381;28;20455;-70
2021/06/27 09:06:00;;;;;;;4.80;4.40;;;;;;;;;;5012371;28;20405;-71
2021/06/27 09:08:26;;;;;;;4.93;4.07;;;;;;;;;;5012214;28;20417;-72
2021/06/27 09:13:56;;;;;;;4.30;4.00;;;;;;;;;;5011840;28;20459;-72
2021/06/27 09:16:24;;;;;;;5.10;4.70;;;;;;;;;;5012031;28;20463;-71
2021/06/27 09:18:50;;;;;;;3.93;3.60;;;;;;;;;;5012083;28;20536;-69
2021/06/27 09:21:17;;;;;;;4.67;4.20;;;;;;;;;;5012232;28;20428;-69
2021/06/27 09:23:48;;;;;;;4.73;4.43;;;;;;;;;;5012460;28;20412;-70
2021/06/27 09:29:26;;;;;;;3.77;3.47;;;;;;;;;;5011826;28;20478;-71
2021/06/27 09:31:52;;;;;;;3.90;3.60;;;;;;;;;;5011934;28;20415;-70
2021/06/27 09:34:18;;;;;;;3.53;3.23;;;;;;;;;;5012165;28;20421;-72
2021/06/27 09:36:47;;;;;;;4.60;4.30;;;;;;;;;;5012332;28;20539;-72
2021/06/27 09:39:15;;;;;;;4.40;4.00;;;;;;;;;;5011898;28;20456;-71
2021/06/27 09:41:49;;;;;;;6.37;3.73;;;;;;;;;;5012145;28;20422;-71
2021/06/27 09:44:16;;;;;;;4.73;4.33;;;;;;;;;;5011892;28;20424;-71
2021/06/27 09:46:50;;;;;;;2.93;2.70;;;;;;;;;;5005783;28;20976;-70
2021/06/27 09:49:25;;;;;;;4.60;3.57;;;;;;;;;;5011547;28;20443;-70
2021/06/27 09:51:52;;;;;;;4.40;4.10;;;;;;;;;;5012225;28;20530;-72
2021/06/27 09:54:22;;;;;;;4.60;4.30;;;;;;;;;;5012246;28;20425;-71
2021/06/27 09:56:49;;;;;;;3.77;3.20;;;;;;;;;;5014829;28;20567;-70
2021/06/27 09:59:16;;;;;;;4.53;3.43;;;;;;;;;;5015589;28;20789;-70
2021/06/27 10:01:42;;;;;;;3.90;3.50;;;;;;;;;;5015927;28;20478;-70
2021/06/27 10:04:10;;;;;;;6.77;4.20;;;;;;;;;;5015598;28;20463;-69
2021/06/27 10:06:50;;;;;;;4.43;3.30;;;;;;;;;;5013726;28;20482;-70
2021/06/27 10:09:20;;;;;;;3.63;3.33;;;;;;;;;;5014404;28;20416;-71
2021/06/27 10:14:50;;;;;;;3.70;3.40;;;;;;;;;;5014043;28;20436;-72
2021/06/27 10:17:16;;;;;;;3.63;3.37;;;;;;;;;;5014693;28;20480;-72
2021/06/27 10:19:44;;;;;;;3.77;3.47;;;;;;;;;;5005062;28;20437;-71
2021/06/27 10:22:10;;;;;;;3.73;3.53;;;;;;;;;;5013653;28;20487;-73
2021/06/27 10:24:36;;;;;;;3.10;2.90;;;;;;;;;;5013862;28;20841;-71
2021/06/27 10:27:03;;;;;;;3.40;3.13;;;;;;;;;;5014068;28;20520;-72
2021/06/27 10:29:30;;;;;;;3.00;2.70;;;;;;;;;;5013439;28;20498;-72
2021/06/27 10:31:56;;;;;;;4.60;3.00;;;;;;;;;;5013772;28;20401;-71
2021/06/27 10:34:23;;;;;;;2.73;2.53;;;;;;;;;;5013426;28;20421;-70
2021/06/27 10:36:56;;;;;;;2.00;1.83;;;;;;;;;;5012033;28;20452;-70
2021/06/27 10:39:23;;;;;;;2.50;2.30;;;;;;;;;;5012583;28;20433;-70
2021/06/27 10:44:58;;;;;;;2.20;2.10;;;;;;;;;;5013239;28;20416;-70
2021/06/27 10:47:33;;;;;;;3.40;2.37;;;;;;;;;;5013554;28;20923;-69
2021/06/27 10:50:02;;;;;;;3.80;3.43;;;;;;;;;;5014123;28;20413;-71
2021/06/27 10:52:28;;;;;;;2.43;2.20;;;;;;;;;;5012144;28;20428;-69
2021/06/27 10:55:13;;;;;;;2.50;2.30;;;;;;;;;;5011669;28;20509;-70
2021/06/27 10:57:52;;;;;;;2.27;2.07;;;;;;;;;;5011896;28;20832;-69
2021/06/27 11:00:18;;;;;;;2.50;2.27;;;;;;;;;;5013098;28;20417;-71
2021/06/27 11:02:44;;;;;;;2.53;2.33;;;;;;;;;;5013287;28;20481;-71
2021/06/27 11:05:25;;;;;;;2.53;2.33;;;;;;;;;;5012937;28;20900;-70
2021/06/27 11:07:51;;;;;;;2.00;1.90;;;;;;;;;;5012688;28;20401;-70
2021/06/27 11:10:20;;;;;;;3.90;2.23;;;;;;;;;;5011883;28;20765;-71
2021/06/27 11:15:22;;;;;;;3.30;2.40;;;;;;;;;;5013609;28;20423;-71
2021/06/27 11:17:52;;;;;;;3.40;2.70;;;;;;;;;;5012224;28;20526;-69
2021/06/27 11:20:18;;;;;;;2.30;2.20;;;;;;;;;;5013780;28;20508;-72
2021/06/27 11:22:50;;;;;;;2.90;2.60;;;;;;;;;;5016791;28;20910;-72
2021/06/27 11:25:36;;;;;;;2.43;2.30;;;;;;;;;;5014550;28;20427;-70
2021/06/27 11:28:18;;;;;;;4.30;3.90;;;;;;;;;;5013277;28;20412;-70
2021/06/27 11:30:54;;;;;;;2.73;2.53;;;;;;;;;;5013319;28;20529;-71
2021/06/27 11:33:25;;;;;;;3.10;2.90;;;;;;;;;;5013474;28;20503;-70
2021/06/27 11:35:54;;;;;;;3.17;2.97;;;;;;;;;;5013301;28;20417;-69
2021/06/27 11:38:39;;;;;;;2.47;2.27;;;;;;;;;;5013074;28;20465;-71
2021/06/27 11:41:20;;;;;;;2.77;2.57;;;;;;;;;;5012856;28;20417;-70
2021/06/27 11:44:02;;;;;;;2.63;2.43;;;;;;;;;;5012673;28;20423;-71
2021/06/27 11:46:31;;;;;;;5.13;2.53;;;;;;;;;;5013396;28;20981;-70
2021/06/27 11:48:58;;;;;;;2.57;2.37;;;;;;;;;;5013498;28;21021;-72
2021/06/27 11:51:37;;;;;;;2.90;2.50;;;;;;;;;;5013671;28;20516;-70
2021/06/27 11:54:04;;;;;;;2.70;2.50;;;;;;;;;;5013574;28;20412;-71
2021/06/27 11:56:50;;;;;;;2.40;2.20;;;;;;;;;;5013357;28;20474;-71
2021/06/27 11:59:16;;;;;;;2.50;2.30;;;;;;;;;;5011659;28;20495;-70
2021/06/27 12:01:42;;;;;;;2.90;2.70;;;;;;;;;;5011819;28;20433;-71
2021/06/27 12:04:08;;;;;;;2.40;2.30;;;;;;;;;;5013318;28;20612;-71
2021/06/27 12:06:37;;;;;;;3.23;3.03;;;;;;;;;;5013287;28;20833;-71
2021/06/27 12:09:04;;;;;;;2.50;2.30;;;;;;;;;;5013227;28;20915;-71
2021/06/27 12:11:30;;;;;;;2.40;2.20;;;;;;;;;;5013364;28;20732;-70
2021/06/27 12:13:57;;;;;;;4.20;2.80;;;;;;;;;;5013174;28;20421;-70
2021/06/27 12:16:32;;;;;;;2.43;2.23;;;;;;;;;;5013370;28;20456;-70
2021/06/27 12:18:59;;;;;;;2.50;2.33;;;;;;;;;;5012582;28;20490;-71
2021/06/27 12:21:27;;;;;;;2.43;2.23;;;;;;;;;;5013106;28;20405;-71
2021/06/27 12:23:57;;;;;;;2.60;2.40;;;;;;;;;;5013200;28;20428;-71
2021/06/27 12:26:24;;;;;;;2.90;2.70;;;;;;;;;;5013197;28;20412;-71
2021/06/27 12:28:54;;;;;;;2.67;2.47;;;;;;;;;;5012799;28;20559;-73
2021/06/27 12:31:31;;;;;;;2.70;2.50;;;;;;;;;;5013033;28;20420;-71
2021/06/27 12:34:03;;;;;;;2.47;2.37;;;;;;;;;;5011474;28;20432;-73
2021/06/27 12:36:30;;;;;;;2.17;2.03;;;;;;;;;;5012906;28;20452;-71
2021/06/27 12:39:00;;;;;;;2.23;2.13;;;;;;;;;;5012953;28;21053;-71
2021/06/27 12:41:27;;;;;;;2.60;2.40;;;;;;;;;;5012817;28;20416;-69
2021/06/27 12:43:56;;;;;;;3.10;2.80;;;;;;;;;;5012434;28;20409;-71
2021/06/27 12:46:27;;;;;;;5.27;2.37;;;;;;;;;;5012775;28;21030;-70
2021/06/27 12:49:02;;;;;;;2.50;2.30;;;;;;;;;;5012599;28;20409;-70
2021/06/27 12:51:33;;;;;;;2.60;2.40;;;;;;;;;;5012655;28;20417;-71
2021/06/27 12:54:07;;;;;;;2.13;2.03;;;;;;;;;;5012930;28;20745;-71
2021/06/27 12:56:53;;;;;;;2.57;2.37;;;;;;;;;;5012581;28;20499;-70
2021/06/27 12:59:21;;;;;;;2.60;2.40;;;;;;;;;;5012317;28;20554;-71
2021/06/27 13:01:57;;;;;;;2.30;2.20;;;;;;;;;;5012398;28;20466;-71
2021/06/27 13:04:37;;;;;;;2.33;2.13;;;;;;;;;;5012326;28;20405;-71
2021/06/27 13:07:04;;;;;;;2.30;2.10;;;;;;;;;;5012648;28;20417;-72
2021/06/27 13:09:31;;;;;;;3.60;2.43;;;;;;;;;;5012518;28;20417;-70
2021/06/27 13:12:07;;;;;;;2.70;2.50;;;;;;;;;;5012127;28;20401;-70
2021/06/27 13:14:33;;;;;;;2.23;2.03;;;;;;;;;;5008857;28;20584;-71
2021/06/27 13:17:07;;;;;;;2.60;2.40;;;;;;;;;;5012294;28;20846;-70
2021/06/27 13:19:33;;;;;;;2.77;2.57;;;;;;;;;;5012136;28;20424;-70
2021/06/27 13:22:15;;;;;;;2.77;2.57;;;;;;;;;;5012487;28;20421;-69
2021/06/27 13:24:57;;;;;;;2.43;2.23;;;;;;;;;;5012336;28;20762;-70
2021/06/27 13:27:24;;;;;;;3.23;2.93;;;;;;;;;;5012221;28;20424;-70
2021/06/27 13:30:02;;;;;;;2.77;2.57;;;;;;;;;;5012041;28;20551;-70
2021/06/27 13:32:28;;;;;;;3.70;2.80;;;;;;;;;;5015086;28;20784;-71
2021/06/27 13:34:54;;;;;;;3.53;3.27;;;;;;;;;;5016015;28;20425;-70
2021/06/27 13:37:20;;;;;;;2.33;2.23;;;;;;;;;;5016162;28;20483;-73
2021/06/27 13:39:46;;;;;;;2.90;2.50;;;;;;;;;;5016041;28;20417;-70
2021/06/27 13:42:12;;;;;;;2.93;2.73;;;;;;;;;;5016174;28;20773;-70
2021/06/27 13:44:55;;;;;;;2.97;2.63;;;;;;;;;;5015891;28;20405;-70
2021/06/27 13:47:21;;;;;;;2.90;2.70;;;;;;;;;;5014784;28;20421;-70
2021/06/27 13:49:47;;;;;;;2.73;2.53;;;;;;;;;;5015649;28;20445;-70
2021/06/27 13:52:13;;;;;;;3.50;2.70;;;;;;;;;;5016229;28;20477;-71
2021/06/27 13:54:39;;;;;;;4.27;2.40;;;;;;;;;;5020509;28;20419;-71
2021/06/27 13:57:05;;;;;;;2.47;2.27;;;;;;;;;;5016975;28;20535;-72
2021/06/27 13:59:31;;;;;;;3.10;2.83;;;;;;;;;;5015984;28;20433;-72
2021/06/27 14:01:57;;;;;;;3.53;2.77;;;;;;;;;;5015576;28;20493;-71
2021/06/27 14:04:23;;;;;;;2.70;2.50;;;;;;;;;;5015633;28;20525;-70
2021/06/27 14:06:49;;;;;;;2.43;2.30;;;;;;;;;;5015506;28;20517;-71
2021/06/27 14:09:15;;;;;;;3.57;2.70;;;;;;;;;;5015326;28;20519;-73
2021/06/27 14:11:42;;;;;;;2.43;2.27;;;;;;;;;;5014274;28;20428;-71
2021/06/27 14:14:08;;;;;;;2.53;2.10;;;;;;;;;;5015343;28;20519;-72
2021/06/27 14:16:34;;;;;;;3.00;2.70;;;;;;;;;;5015240;28;20563;-70
2021/06/27 14:19:01;;;;;;;3.67;2.93;;;;;;;;;;5015218;28;20416;-70
2021/06/27 14:21:29;;;;;;;2.80;2.60;;;;;;;;;;4997514;28;20760;-70
2021/06/27 14:23:55;;;;;;;2.63;2.43;;;;;;;;;;5015188;28;20413;-70
2021/06/27 14:26:21;;;;;;;2.87;2.67;;;;;;;;;;5015107;28;20482;-70
2021/06/27 14:28:47;;;;;;;3.30;3.10;;;;;;;;;;5013202;28;20600;-71
2021/06/27 14:31:13;;;;;;;2.90;2.70;;;;;;;;;;5014922;28;20786;-70
2021/06/27 14:33:40;;;;;;;2.83;2.63;;;;;;;;;;5014714;28;20436;-70
2021/06/27 14:36:07;;;;;;;3.57;2.77;;;;;;;;;;5014828;28;20413;-70
2021/06/27 14:38:33;;;;;;;3.17;2.57;;;;;;;;;;5015014;28;20440;-71
2021/06/27 14:41:02;;;;;;;2.50;2.30;;;;;;;;;;5014988;28;20801;-70
2021/06/27 14:46:31;;;;;;;2.80;2.57;;;;;;;;;;5014842;28;20408;-71
2021/06/27 14:48:59;;;;;;;3.10;2.27;;;;;;;;;;4997397;28;20433;-72
2021/06/27 14:51:25;;;;;;;2.70;2.50;;;;;;;;;;5015046;28;20806;-70
2021/06/27 14:53:51;;;;;;;3.03;2.83;;;;;;;;;;5014538;28;20413;-69
2021/06/27 14:56:17;;;;;;;2.40;2.30;;;;;;;;;;5014903;28;20501;-70
2021/06/27 15:01:47;;;;;;;2.67;2.47;;;;;;;;;;5014424;28;20454;-70
2021/06/27 15:04:13;;;;;;;3.13;2.93;;;;;;;;;;5014343;28;20993;-71
2021/06/27 15:06:39;;;;;;;2.70;2.10;;;;;;;;;;5014339;28;20435;-70
2021/06/27 15:09:06;;;;;;;2.70;2.50;;;;;;;;;;5014247;28;20879;-70
2021/06/27 15:11:32;;;;;;;2.80;2.60;;;;;;;;;;5014289;28;20420;-71
2021/06/27 15:17:02;;;;;;;2.83;2.53;;;;;;;;;;5014123;28;20522;-69
2021/06/27 15:19:29;;;;;;;4.00;3.13;;;;;;;;;;5013953;28;20451;-70
2021/06/27 15:21:55;;;;;;;3.30;3.10;;;;;;;;;;5014113;28;20894;-70
2021/06/27 15:24:21;;;;;;;4.77;2.30;;;;;;;;;;5012603;28;20428;-70
2021/06/27 15:26:47;;;;;;;4.33;2.80;;;;;;;;;;5013653;28;20456;-70
2021/06/27 15:29:14;;;;;;;4.70;3.13;;;;;;;;;;5013726;28;20475;-70
2021/06/27 15:31:40;;;;;;;3.00;2.80;;;;;;;;;;5014303;28;20516;-70
2021/06/27 15:34:06;;;;;;;5.50;3.47;;;;;;;;;;5012368;28;20990;-71
2021/06/27 15:36:32;;;;;;;3.40;2.47;;;;;;;;;;5013690;28;20539;-70
2021/06/27 15:38:59;;;;;;;2.80;2.60;;;;;;;;;;5014026;28;20495;-71
2021/06/27 15:41:26;;;;;;;2.97;2.77;;;;;;;;;;5013640;28;20947;-72
2021/06/27 15:46:56;;;;;;;2.90;2.70;;;;;;;;;;5013584;28;20483;-71
2021/06/27 15:49:22;;;;;;;2.77;2.57;;;;;;;;;;5013496;28;20456;-71
2021/06/27 15:51:48;;;;;;;3.60;2.53;;;;;;;;;;5013530;28;20405;-71
2021/06/27 15:54:14;;;;;;;3.20;3.00;;;;;;;;;;5013171;28;20888;-71
2021/06/27 15:56:40;;;;;;;3.47;2.50;;;;;;;;;;5013592;28;20484;-71
2021/06/27 16:02:09;;;;;;;5.03;4.50;;;;;;;;;;5013328;28;20471;-71
2021/06/27 16:04:35;;;;;;;3.70;3.13;;;;;;;;;;5013241;28;20416;-71
2021/06/27 16:07:01;;;;;;;3.33;3.07;;;;;;;;;;5013546;28;20502;-71
2021/06/27 16:09:27;;;;;;;3.10;2.90;;;;;;;;;;5013387;28;20467;-71
2021/06/27 16:11:55;;;;;;;2.70;2.50;;;;;;;;;;5013291;28;20423;-72
2021/06/27 16:17:24;;;;;;;3.27;2.20;;;;;;;;;;5013017;28;20536;-70
2021/06/27 16:19:51;;;;;;;3.00;2.70;;;;;;;;;;5013134;28;20425;-70
2021/06/27 16:22:17;;;;;;;2.60;2.40;;;;;;;;;;5013217;28;20421;-70
2021/06/27 16:24:43;;;;;;;2.83;2.63;;;;;;;;;;5015876;28;20455;-71
2021/06/27 16:27:09;;;;;;;3.30;3.10;;;;;;;;;;5016028;28;20739;-71
2021/06/27 16:32:39;;;;;;;3.13;2.90;;;;;;;;;;5013167;28;20475;-71
2021/06/27 16:35:06;;;;;;;7.03;2.90;;;;;;;;;;5011322;28;20447;-72
2021/06/27 16:37:37;;;;;;;8.47;3.97;;;;;;;;;;5012845;28;20544;-70
2021/06/27 16:40:04;;;;;;;3.83;3.00;;;;;;;;;;5013097;28;20497;-71
2021/06/27 16:42:30;;;;;;;4.60;4.20;;;;;;;;;;5012836;28;20558;-71